createdAt,value
2019-02-23T00:04:30.560Z,11.13
2019-02-23T00:06:59.014Z,11.50
2019-02-23T00:09:27.470Z,10.97
2019-02-23T00:11:55.863Z,10.97
2019-02-23T00:14:24.596Z,11.50
2019-02-23T00:16:53.484Z,10.90
2019-02-23T00:19:25.161Z,10.93
2019-02-23T00:21:52.203Z,10.90
2019-02-23T00:24:20.568Z,11.90
2019-02-23T00:26:49.365Z,11.03
2019-02-23T00:29:17.812Z,11.70
2019-02-23T00:31:46.289Z,10.70
2019-02-23T00:34:15.013Z,10.30
2019-02-23T00:36:43.544Z,11.57
2019-02-23T00:39:12.024Z,10.63
2019-02-23T00:41:40.382Z,11.37
2019-02-23T00:44:08.853Z,11.47
2019-02-23T00:46:37.310Z,10.97
2019-02-23T00:49:05.767Z,11.20
2019-02-23T00:51:34.365Z,11.60
2019-02-23T00:54:02.772Z,10.57
2019-02-23T00:56:31.555Z,11.70
2019-02-23T00:58:59.976Z,11.17
2019-02-23T01:01:28.395Z,11.00
2019-02-23T01:03:57.206Z,11.20
2019-02-23T01:06:25.763Z,11.73
2019-02-23T01:08:54.286Z,10.83
2019-02-23T01:11:22.653Z,10.87
2019-02-23T01:13:51.443Z,11.60
2019-02-23T01:16:20.134Z,11.00
2019-02-23T01:18:49.023Z,11.10
2019-02-23T01:21:17.815Z,11.30
2019-02-23T01:23:46.504Z,10.93
2019-02-23T01:26:14.983Z,11.67
2019-02-23T01:28:43.448Z,11.07
2019-02-23T01:31:12.161Z,11.07
2019-02-23T01:33:40.675Z,10.80
2019-02-23T01:36:09.173Z,11.70
2019-02-23T01:38:37.631Z,11.17
2019-02-23T01:41:06.093Z,10.40
2019-02-23T01:43:34.572Z,11.30
2019-02-23T01:46:03.092Z,11.43
2019-02-23T01:48:31.728Z,10.90
2019-02-23T01:51:00.424Z,11.03
2019-02-23T01:53:28.988Z,11.40
2019-02-23T01:55:57.803Z,11.20
2019-02-23T01:58:26.306Z,11.60
2019-02-23T02:00:54.796Z,11.70
2019-02-23T02:03:23.341Z,11.73
2019-02-23T02:05:52.239Z,10.83
2019-02-23T02:08:20.620Z,11.90
2019-02-23T02:10:49.073Z,11.60
2019-02-23T02:13:17.890Z,11.00
2019-02-23T02:15:46.789Z,10.70
2019-02-23T02:18:15.156Z,10.90
2019-02-23T02:20:43.583Z,11.80
2019-02-23T02:23:12.030Z,11.80
2019-02-23T02:25:40.553Z,11.83
2019-02-23T02:28:09.412Z,10.80
2019-02-23T02:30:38.188Z,11.10
2019-02-23T02:33:06.713Z,11.37
2019-02-23T02:35:35.174Z,12.23
2019-02-23T02:38:03.655Z,12.20
2019-02-23T02:40:32.032Z,11.83
2019-02-23T02:43:00.651Z,12.13
2019-02-23T02:45:29.046Z,12.80
2019-02-23T02:47:57.457Z,11.43
2019-02-23T02:50:25.911Z,11.63
2019-02-23T02:52:54.316Z,12.30
2019-02-23T02:55:22.779Z,11.50
2019-02-23T02:57:51.154Z,11.97
2019-02-23T03:00:19.710Z,11.93
2019-02-23T03:02:48.225Z,11.60
2019-02-23T03:05:16.680Z,11.70
2019-02-23T03:07:45.225Z,11.67
2019-02-23T03:10:53.637Z,11.50
2019-02-23T03:13:22.157Z,11.27
2019-02-23T03:15:50.611Z,11.90
2019-02-23T03:18:18.982Z,12.17
2019-02-23T03:20:47.776Z,12.10
2019-02-23T03:23:16.205Z,13.10
2019-02-23T03:25:44.588Z,12.67
2019-02-23T03:28:13.085Z,13.00
2019-02-23T03:30:41.631Z,12.33
2019-02-23T03:33:10.169Z,13.00
2019-02-23T03:35:38.771Z,12.70
2019-02-23T03:38:07.247Z,12.60
2019-02-23T03:40:35.718Z,12.50
2019-02-23T03:43:04.213Z,12.40
2019-02-23T03:45:32.584Z,12.73
2019-02-23T03:48:01.054Z,12.63
2019-02-23T03:50:29.582Z,12.20
2019-02-23T03:52:58.179Z,12.77
2019-02-23T03:55:26.824Z,12.57
2019-02-23T03:57:55.255Z,13.33
2019-02-23T04:00:23.677Z,11.80
2019-02-23T04:02:52.124Z,12.70
2019-02-23T04:05:21.178Z,13.37
2019-02-23T04:07:49.589Z,13.20
2019-02-23T04:10:18.040Z,12.70
2019-02-23T04:12:46.441Z,13.70
2019-02-23T04:15:14.886Z,13.77
2019-02-23T04:17:43.269Z,13.53
2019-02-23T04:20:11.892Z,12.50
2019-02-23T04:22:40.313Z,13.17
2019-02-23T04:25:48.732Z,13.90
2019-02-23T04:28:17.559Z,13.43
2019-02-23T04:30:46.050Z,12.90
2019-02-23T04:33:14.822Z,13.37
2019-02-23T04:35:43.379Z,12.93
2019-02-23T04:38:11.926Z,13.07
2019-02-23T04:40:40.438Z,12.40
2019-02-23T04:43:09.168Z,13.90
2019-02-23T04:45:37.703Z,13.00
2019-02-23T04:48:06.107Z,12.17
2019-02-23T04:50:34.555Z,13.30
2019-02-23T04:53:02.926Z,13.97
2019-02-23T04:55:31.342Z,13.83
2019-02-23T04:57:59.770Z,13.80
2019-02-23T05:00:28.542Z,13.80
2019-02-23T05:02:56.957Z,13.33
2019-02-23T05:05:25.612Z,13.50
2019-02-23T05:07:54.108Z,14.40
2019-02-23T05:10:22.603Z,14.10
2019-02-23T05:12:51.018Z,13.53
2019-02-23T05:15:19.850Z,13.90
2019-02-23T05:17:48.321Z,14.20
2019-02-23T05:20:17.021Z,13.20
2019-02-23T05:23:04.829Z,12.90
2019-02-23T05:25:33.274Z,13.10
2019-02-23T05:28:01.736Z,13.83
2019-02-23T05:30:30.197Z,13.57
2019-02-23T05:32:58.566Z,13.60
2019-02-23T05:35:27.095Z,14.00
2019-02-23T05:37:55.635Z,13.33
2019-02-23T05:40:24.576Z,13.60
2019-02-23T05:43:01.001Z,13.03
2019-02-23T05:45:23.276Z,13.37
2019-02-23T05:47:51.746Z,14.17
2019-02-23T05:50:20.249Z,14.63
2019-02-23T05:52:49.000Z,13.30
2019-02-23T05:55:17.715Z,13.87
2019-02-23T05:57:46.111Z,13.93
2019-02-23T06:00:54.540Z,14.40
2019-02-23T06:03:23.084Z,13.93
2019-02-23T06:05:51.523Z,13.33
2019-02-23T06:08:20.367Z,12.93
2019-02-23T06:10:49.053Z,13.90
2019-02-23T06:13:17.591Z,13.20
2019-02-23T06:15:46.000Z,13.53
2019-02-23T06:18:14.409Z,13.80
2019-02-23T06:20:42.825Z,13.40
2019-02-23T06:23:11.390Z,14.23
2019-02-23T06:25:39.793Z,14.67
2019-02-23T06:28:08.212Z,14.43
2019-02-23T06:30:36.672Z,14.23
2019-02-23T06:33:05.480Z,14.10
2019-02-23T06:35:34.021Z,13.97
2019-02-23T06:38:02.494Z,13.93
2019-02-23T06:40:31.121Z,14.53
2019-02-23T06:42:59.664Z,14.87
2019-02-23T06:45:28.453Z,17.00
2019-02-23T06:47:56.859Z,17.07
2019-02-23T06:53:00.023Z,16.10
2019-02-23T06:55:28.507Z,15.60
2019-02-23T06:57:57.626Z,13.87
2019-02-23T07:00:26.485Z,14.80
2019-02-23T07:02:55.215Z,15.37
2019-02-23T07:05:23.764Z,15.30
2019-02-23T07:07:52.518Z,14.30
2019-02-23T07:10:21.033Z,14.87
2019-02-23T07:12:49.562Z,14.27
2019-02-23T07:15:18.064Z,14.60
2019-02-23T07:17:46.523Z,14.50
2019-02-23T07:20:14.989Z,15.07
2019-02-23T07:22:43.391Z,14.83
2019-02-23T07:25:11.929Z,14.70
2019-02-23T07:27:40.434Z,14.37
2019-02-23T07:30:28.215Z,15.17
2019-02-23T07:32:56.809Z,14.23
2019-02-23T07:35:25.237Z,13.87
2019-02-23T07:37:53.716Z,16.33
2019-02-23T07:40:22.201Z,14.63
2019-02-23T07:42:50.587Z,13.30
2019-02-23T07:45:19.123Z,14.03
2019-02-23T07:47:47.503Z,15.00
2019-02-23T07:50:55.958Z,15.73
2019-02-23T07:53:24.391Z,15.00
2019-02-23T07:55:52.933Z,15.03
2019-02-23T07:58:21.454Z,15.10
2019-02-23T08:00:50.202Z,14.50
2019-02-23T08:03:18.720Z,13.10
2019-02-23T08:05:47.255Z,14.40
2019-02-23T08:08:15.725Z,13.63
2019-02-23T08:10:44.236Z,14.20
2019-02-23T08:13:12.688Z,14.60
2019-02-23T08:15:41.220Z,13.33
2019-02-23T08:18:09.790Z,13.60
2019-02-23T08:20:38.383Z,13.43
2019-02-23T08:23:06.847Z,14.27
2019-02-23T08:25:35.360Z,14.47
2019-02-23T08:28:03.932Z,13.57
2019-02-23T08:30:32.748Z,13.67
2019-02-23T08:33:01.219Z,13.77
2019-02-23T08:35:29.784Z,13.90
2019-02-23T08:37:58.322Z,14.53
2019-02-23T08:40:26.809Z,13.57
2019-02-23T08:42:55.302Z,15.07
2019-02-23T08:45:23.889Z,13.77
2019-02-23T08:47:52.492Z,14.03
2019-02-23T08:50:21.023Z,13.10
2019-02-23T08:52:50.475Z,14.20
2019-02-23T08:55:19.795Z,13.77
2019-02-23T08:57:48.347Z,13.50
2019-02-23T09:00:56.774Z,15.03
2019-02-23T09:03:25.670Z,13.70
2019-02-23T09:08:45.500Z,13.67
2019-02-23T09:11:14.046Z,13.63
2019-02-23T09:13:43.388Z,13.20
2019-02-23T09:16:12.437Z,13.23
2019-02-23T09:18:41.142Z,13.60
2019-02-23T09:21:09.918Z,13.57
2019-02-23T09:24:18.523Z,14.03
2019-02-23T09:26:47.398Z,13.90
2019-02-23T09:29:16.182Z,14.83
2019-02-23T09:31:44.846Z,14.03
2019-02-23T09:34:13.403Z,18.70
2019-02-23T09:36:41.990Z,14.97
2019-02-23T09:39:10.935Z,14.40
2019-02-23T09:41:39.343Z,13.57
2019-02-23T09:44:07.917Z,13.60
2019-02-23T09:46:36.320Z,12.87
2019-02-23T09:49:04.871Z,13.60
2019-02-23T09:51:33.403Z,12.73
2019-02-23T09:54:02.065Z,12.53
2019-02-23T09:56:30.542Z,13.20
2019-02-23T09:58:58.943Z,13.67
2019-02-23T10:01:27.683Z,13.30
2019-02-23T10:03:56.169Z,13.97
2019-02-23T10:06:24.662Z,14.60
2019-02-23T10:08:53.034Z,14.83
2019-02-23T10:11:21.522Z,13.40
2019-02-23T10:13:49.980Z,12.70
2019-02-23T10:16:18.619Z,13.33
2019-02-23T10:18:47.140Z,14.27
2019-02-23T10:21:15.731Z,13.20
2019-02-23T10:23:44.340Z,14.10
2019-02-23T10:26:32.253Z,13.20
2019-02-23T10:29:00.947Z,18.00
2019-02-23T10:31:29.515Z,18.73
2019-02-23T10:33:57.970Z,14.53
2019-02-23T10:36:26.492Z,13.93
2019-02-23T10:38:55.228Z,12.97
2019-02-23T10:41:23.827Z,12.30
2019-02-23T10:43:52.365Z,13.33
2019-02-23T10:46:21.154Z,13.70
2019-02-23T10:48:49.571Z,13.37
2019-02-23T10:51:18.281Z,12.23
2019-02-23T10:53:46.812Z,13.10
2019-02-23T10:56:15.200Z,13.60
2019-02-23T10:58:43.686Z,12.97
2019-02-23T11:01:12.130Z,14.40
2019-02-23T11:03:40.885Z,12.70
2019-02-23T11:06:09.836Z,12.90
2019-02-23T11:08:38.268Z,13.50
2019-02-23T11:16:28.241Z,13.27
2019-02-23T11:18:56.742Z,12.77
2019-02-23T11:21:25.612Z,12.53
2019-02-23T11:23:54.172Z,12.93
2019-02-23T11:26:22.987Z,13.43
2019-02-23T11:31:38.906Z,12.27
2019-02-23T11:34:07.539Z,13.20
2019-02-23T11:36:36.178Z,13.30
2019-02-23T11:39:44.611Z,12.83
2019-02-23T11:42:13.019Z,12.53
2019-02-23T11:44:41.574Z,13.10
2019-02-23T11:47:10.054Z,13.67
2019-02-23T11:49:38.680Z,13.07
2019-02-23T11:52:07.121Z,12.83
2019-02-23T11:54:35.581Z,12.53
2019-02-23T11:57:04.038Z,12.90
2019-02-23T11:59:32.460Z,12.97
2019-02-23T12:02:00.994Z,12.07
2019-02-23T12:04:29.483Z,12.43
2019-02-23T12:06:58.054Z,12.50
2019-02-23T12:09:26.545Z,13.13
2019-02-23T12:11:55.208Z,13.10
2019-02-23T12:14:25.852Z,12.57
2019-02-23T12:17:13.120Z,12.40
2019-02-23T12:19:41.633Z,12.57
2019-02-23T12:22:12.637Z,12.97
2019-02-23T12:24:40.298Z,12.20
2019-02-23T12:27:08.787Z,12.73
2019-02-23T12:29:37.345Z,12.73
2019-02-23T12:32:05.820Z,13.50
2019-02-23T12:34:34.334Z,12.77
2019-02-23T12:37:03.070Z,12.73
2019-02-23T12:39:31.717Z,13.60
2019-02-23T12:42:00.311Z,14.03
2019-02-23T12:44:31.312Z,19.20
2019-02-23T12:46:59.767Z,15.40
2019-02-23T12:49:28.618Z,13.60
2019-02-23T12:51:57.331Z,12.80
2019-02-23T12:54:26.282Z,13.00
2019-02-23T12:59:42.189Z,12.70
2019-02-23T13:04:59.758Z,13.33
2019-02-23T13:07:28.133Z,12.27
2019-02-23T13:09:56.693Z,12.93
2019-02-23T13:13:03.995Z,13.00
2019-02-23T13:16:12.435Z,13.07
2019-02-23T13:19:19.613Z,14.60
2019-02-23T13:25:44.788Z,14.00
2019-02-23T13:28:53.278Z,13.10
2019-02-23T13:32:00.762Z,12.93
2019-02-23T13:35:07.946Z,14.40
2019-02-23T13:38:16.510Z,13.47
2019-02-23T13:41:24.986Z,12.40
2019-02-23T13:44:36.673Z,15.40
2019-02-23T13:47:43.881Z,14.07
2019-02-23T13:50:51.078Z,15.90
2019-02-23T13:53:59.571Z,14.83
2019-02-23T13:57:07.016Z,16.63
2019-02-23T14:00:14.247Z,20.23
2019-02-23T14:03:21.442Z,18.40
2019-02-23T14:06:28.896Z,15.80
2019-02-23T14:09:36.109Z,14.77
2019-02-23T14:12:44.637Z,14.83
2019-02-23T14:15:53.138Z,14.80
2019-02-23T14:19:00.378Z,14.80
2019-02-23T14:22:07.558Z,14.40
2019-02-23T14:25:14.733Z,12.97
2019-02-23T14:28:22.123Z,13.63
2019-02-23T14:31:11.754Z,13.33
2019-02-23T14:34:18.988Z,14.20
2019-02-23T14:37:27.433Z,16.10
2019-02-23T14:40:34.726Z,13.63
2019-02-23T14:43:41.923Z,13.53
2019-02-23T14:46:49.347Z,14.80
2019-02-23T14:49:56.543Z,14.23
2019-02-23T14:53:03.955Z,15.07
2019-02-23T14:56:11.127Z,17.60
2019-02-23T14:59:19.589Z,17.33
2019-02-23T15:02:26.766Z,15.90
2019-02-23T15:05:35.201Z,22.37
2019-02-23T15:08:43.708Z,17.47
2019-02-23T15:11:52.240Z,19.90
2019-02-23T15:14:59.350Z,17.17
2019-02-23T15:18:06.554Z,15.00
2019-02-23T15:21:15.055Z,14.83
2019-02-23T15:24:23.497Z,15.17
2019-02-23T15:27:30.680Z,17.97
2019-02-23T15:30:39.175Z,14.30
2019-02-23T15:33:46.374Z,13.53
2019-02-23T15:37:00.575Z,13.10
2019-02-23T15:40:02.637Z,13.37
2019-02-23T15:43:09.812Z,13.57
2019-02-23T15:46:17.255Z,13.00
2019-02-23T15:49:24.455Z,13.00
2019-02-23T15:51:53.004Z,14.10
2019-02-23T15:54:21.457Z,13.30
2019-02-23T15:56:49.974Z,13.30
2019-02-23T15:59:18.410Z,14.10
2019-02-23T16:01:47.342Z,14.07
2019-02-23T16:04:16.320Z,13.90
2019-02-23T16:06:44.880Z,13.20
2019-02-23T16:09:53.321Z,13.13
2019-02-23T16:12:21.907Z,12.93
2019-02-23T16:14:50.372Z,13.20
2019-02-23T16:17:19.195Z,13.57
2019-02-23T16:19:47.792Z,12.73
2019-02-23T16:22:18.724Z,13.73
2019-02-23T16:24:46.722Z,12.87
2019-02-23T16:27:15.244Z,15.33
2019-02-23T16:29:44.122Z,12.73
2019-02-23T16:32:12.690Z,11.83
2019-02-23T16:34:41.286Z,12.80
2019-02-23T16:37:09.863Z,13.03
2019-02-23T16:39:40.608Z,12.20
2019-02-23T16:42:08.839Z,12.10
2019-02-23T16:44:37.313Z,12.13
2019-02-23T16:47:06.026Z,13.37
2019-02-23T16:52:09.676Z,13.30
2019-02-23T16:54:38.276Z,12.83
2019-02-23T16:57:07.004Z,12.10
2019-02-23T16:59:35.517Z,13.20
2019-02-23T17:02:04.215Z,13.27
2019-02-23T17:04:32.656Z,14.63
2019-02-23T17:07:01.135Z,13.03
2019-02-23T17:09:29.739Z,12.47
2019-02-23T17:12:01.590Z,13.63
2019-02-23T17:14:40.676Z,13.67
2019-02-23T17:17:09.300Z,13.40
2019-02-23T17:19:37.871Z,12.90
2019-02-23T17:22:06.470Z,13.80
2019-02-23T17:24:54.623Z,12.73
2019-02-23T17:27:35.453Z,13.33
2019-02-23T17:29:54.157Z,14.10
2019-02-23T17:32:23.102Z,13.10
2019-02-23T17:34:51.839Z,12.70
2019-02-23T17:37:20.467Z,13.63
2019-02-23T17:39:49.066Z,15.53
2019-02-23T17:42:27.670Z,14.63
2019-02-23T17:44:47.978Z,13.07
2019-02-23T17:47:16.755Z,14.47
2019-02-23T17:49:45.405Z,13.77
2019-02-23T17:52:33.034Z,13.80
2019-02-23T17:55:01.605Z,14.03
2019-02-23T17:57:30.083Z,14.77
2019-02-23T17:59:58.709Z,13.90
2019-02-23T18:02:27.201Z,13.90
2019-02-23T18:04:55.651Z,14.50
2019-02-23T18:08:04.119Z,14.40
2019-02-23T18:10:33.118Z,14.00
2019-02-23T18:15:57.035Z,14.23
2019-02-23T18:18:25.580Z,13.50
2019-02-23T18:20:54.235Z,15.30
2019-02-23T18:23:22.829Z,13.20
2019-02-23T18:25:51.576Z,14.70
2019-02-23T18:28:20.245Z,14.80
2019-02-23T18:30:49.326Z,15.10
2019-02-23T18:33:18.120Z,13.87
2019-02-23T18:35:46.887Z,13.73
2019-02-23T18:38:15.653Z,14.10
2019-02-23T18:40:44.393Z,13.70
2019-02-23T18:43:13.085Z,14.23
2019-02-23T18:45:47.428Z,15.77
2019-02-23T18:48:12.169Z,14.10
2019-02-23T18:50:40.775Z,15.43
2019-02-23T18:53:09.577Z,14.87
2019-02-23T18:55:41.080Z,15.27
2019-02-23T18:58:08.659Z,15.20
2019-02-23T19:00:37.453Z,15.97
2019-02-23T19:03:06.156Z,15.10
2019-02-23T19:05:34.951Z,16.43
2019-02-23T19:08:03.434Z,16.17
2019-02-23T19:10:32.016Z,15.90
2019-02-23T19:13:00.678Z,16.07
2019-02-23T19:15:29.814Z,16.20
2019-02-23T19:17:58.513Z,17.80
2019-02-23T19:25:57.403Z,16.87
2019-02-23T19:28:26.293Z,17.50
2019-02-23T19:30:54.979Z,16.17
2019-02-23T19:33:23.929Z,16.27
2019-02-23T19:35:52.973Z,16.10
2019-02-23T19:38:21.579Z,15.97
2019-02-23T19:40:50.392Z,16.20
2019-02-23T19:46:31.133Z,19.23
2019-02-23T19:51:58.782Z,20.80
2019-02-23T19:57:17.315Z,15.77
2019-02-23T19:59:45.961Z,16.30
2019-02-23T20:02:54.756Z,15.73
2019-02-23T20:05:23.553Z,16.00
2019-02-23T20:07:52.816Z,16.10
2019-02-23T20:10:22.759Z,17.60
2019-02-23T20:12:51.859Z,14.17
2019-02-23T20:15:20.778Z,15.40
2019-02-23T20:17:49.292Z,15.13
2019-02-23T20:20:18.055Z,15.40
2019-02-23T20:22:46.702Z,15.17
2019-02-23T20:25:15.356Z,15.27
2019-02-23T20:27:43.998Z,14.47
2019-02-23T20:30:52.408Z,15.13
2019-02-23T20:33:20.961Z,15.40
2019-02-23T20:35:49.989Z,15.13
2019-02-23T20:38:18.361Z,15.23
2019-02-23T20:40:46.990Z,15.60
2019-02-23T20:43:34.884Z,15.47
2019-02-23T20:46:03.465Z,16.00
2019-02-23T20:48:31.930Z,16.40
2019-02-23T20:51:00.521Z,15.83
2019-02-23T20:53:29.015Z,15.43
2019-02-23T20:55:57.524Z,15.87
2019-02-23T20:58:27.408Z,16.33
2019-02-23T21:00:56.324Z,16.17
2019-02-23T21:03:24.832Z,15.00
2019-02-23T21:05:53.395Z,16.20
2019-02-23T21:08:22.783Z,15.00
2019-02-23T21:11:32.795Z,15.90
2019-02-23T21:14:01.268Z,15.47
2019-02-23T21:16:29.738Z,15.40
2019-02-23T21:18:58.246Z,15.50
2019-02-23T21:21:26.748Z,16.30
2019-02-23T21:23:55.348Z,17.37
2019-02-23T21:26:23.886Z,14.20
2019-02-23T21:28:52.308Z,15.20
2019-02-23T21:31:21.090Z,15.67
2019-02-23T21:33:49.549Z,15.30
2019-02-23T21:36:18.079Z,17.03
2019-02-23T21:38:46.540Z,15.57
2019-02-23T21:41:15.125Z,15.57
2019-02-23T21:43:43.595Z,16.67
2019-02-23T21:46:13.966Z,16.60
2019-02-23T21:48:43.029Z,16.50
2019-02-23T21:51:11.494Z,16.13
2019-02-23T21:53:39.974Z,16.33
2019-02-23T21:56:08.547Z,15.87
2019-02-23T21:58:37.076Z,15.03
2019-02-23T22:01:05.625Z,15.27
2019-02-23T22:03:34.337Z,15.83
2019-02-23T22:06:03.225Z,15.53
2019-02-23T22:08:31.768Z,15.20
2019-02-23T22:11:00.319Z,14.57
2019-02-23T22:13:28.833Z,16.00
2019-02-23T22:15:57.238Z,15.30
2019-02-23T22:18:25.742Z,14.90
2019-02-23T22:20:54.249Z,15.13
2019-02-23T22:23:22.955Z,15.43
2019-02-23T22:25:51.435Z,15.63
2019-02-23T22:28:19.932Z,15.80
2019-02-23T22:30:48.578Z,14.53
2019-02-23T22:33:17.453Z,14.60
2019-02-23T22:35:46.077Z,14.40
2019-02-23T22:38:14.686Z,15.50
2019-02-23T22:40:43.717Z,15.37
2019-02-23T22:43:12.262Z,15.87
2019-02-23T22:46:00.340Z,14.37
2019-02-23T22:48:28.787Z,14.50
2019-02-23T22:50:57.325Z,15.33
2019-02-23T22:53:25.849Z,15.20
2019-02-23T22:55:54.298Z,14.83
2019-02-23T22:58:22.839Z,16.00
2019-02-23T23:01:10.816Z,15.63
2019-02-23T23:03:39.477Z,15.77
2019-02-23T23:06:47.913Z,15.67
2019-02-23T23:09:35.482Z,15.93
2019-02-23T23:12:04.046Z,14.93
2019-02-23T23:14:52.576Z,15.83
2019-02-23T23:17:22.993Z,15.07
2019-02-23T23:19:51.560Z,15.87
2019-02-23T23:22:20.003Z,14.80
2019-02-23T23:24:48.857Z,15.67
2019-02-23T23:27:17.477Z,15.67
2019-02-23T23:29:45.947Z,15.37
2019-02-23T23:32:14.319Z,14.93
2019-02-23T23:34:42.785Z,14.50
2019-02-23T23:37:11.246Z,15.13
2019-02-23T23:39:39.704Z,15.80
2019-02-23T23:42:08.322Z,15.50
2019-02-23T23:44:36.702Z,15.37
2019-02-23T23:47:05.602Z,15.30
2019-02-23T23:49:34.496Z,15.83
2019-02-23T23:52:03.047Z,16.27
2019-02-23T23:54:31.582Z,15.83
2019-02-23T23:57:00.052Z,15.67
2019-02-23T23:59:28.551Z,15.63
